Ana Sayfa
METAR-TAF:

METAR-TAF

Havaalanları :

Kasumigaura, Japonya

Enlem: 36-02N, Boylam: 140-12E, yükseklik: 26 m

Güncel hava durumu gözlemi

Rapor saat 21:17 UTC de 10 saat ve 59 dakika önce yapıldı.
Rüzgar kuzeydan 5 kt, kuzey/kuzeybatı ve kuzeydoğu arasında değişken
Sıcaklık 25°C
Nem 79%
Basınç 1007 hPa
Görüş mesafesi 10 km veya daha fazla
2000 ft yükseklikte az bulutlu
7000 ft yükseklikte parçalı bulutlu
17000 ft yükseklikte parçalı çok bulutlu

METAR: RJAK 242117Z 01005KT 330V050 9999 FEW020 SCT070 BKN170 25/21 Q1007 RMK 1CU020 3AC070 6AC170 A2975

Saat: 17:16 (08:16 UTC)


TAF: eksik

4.000'den fazla havaalanı için hava durumu gözlemleri ve tahminleri (METAR ve TAF raporları).

Kullanılabilir istasyonlar harita üzerinde sarı ve kırmızı noktalarla gösterilir.

İstasyonun adını görmek için fareyi noktanın üzerinde gezdirin.

Sonrasında hava gözlem ve tahminlerini görmek için tıklayın.

Haritayı değiştirmek için: yaklaştırmak için siyah artı işaretli yeşil düğmeye ve uzaklaştırmak için de eksi işaretli düğmeye hızla tıklayın; bitişik haritalar için yeşil okları kullanın.


METAR-TAF: